Time;durP1;ratioP1;P1;durP2;ratioP2;P2;SDS_P1;SDS_P2;PMS_P1;PMS_P2;Temp;Humidity;BMP_temperature;BMP_pressure;BME280_temperature;BME280_humidity;BME280_pressure;Samples;Min_cycle;Max_cycle;Signal;HPM_P1;HPM_P2
2023/12/07 00:00:18;;;;;;;4.63;4.05;;;15.20;54.80;;;;;;5071092;28;20174;-61
2023/12/07 00:02:43;;;;;;;4.15;3.85;;;15.20;54.80;;;;;;5071908;28;20170;-61
2023/12/07 00:05:09;;;;;;;5.43;4.20;;;15.20;54.80;;;;;;5071859;28;20179;-62
2023/12/07 00:07:34;;;;;;;3.83;3.47;;;15.20;54.70;;;;;;5070817;28;20197;-61
2023/12/07 00:10:00;;;;;;;4.50;4.10;;;15.20;54.70;;;;;;5072122;28;20200;-61
2023/12/07 00:12:25;;;;;;;4.47;4.07;;;15.10;54.70;;;;;;5071773;28;20261;-61
2023/12/07 00:14:51;;;;;;;4.53;4.13;;;15.10;54.70;;;;;;5071162;28;20204;-61
2023/12/07 00:17:17;;;;;;;4.90;4.13;;;15.10;54.70;;;;;;5071588;28;20622;-61
2023/12/07 00:19:42;;;;;;;4.65;4.07;;;15.10;54.70;;;;;;5071113;28;20181;-61
2023/12/07 00:22:08;;;;;;;4.95;4.55;;;15.10;54.70;;;;;;5071602;28;20216;-60
2023/12/07 00:24:33;;;;;;;4.20;3.80;;;15.00;54.70;;;;;;5071688;28;20178;-61
2023/12/07 00:26:59;;;;;;;4.60;4.20;;;15.00;54.60;;;;;;5073518;28;20264;-61
2023/12/07 00:29:24;;;;;;;4.25;3.85;;;15.00;54.70;;;;;;5075504;28;20594;-60
2023/12/07 00:31:51;;;;;;;5.35;4.30;;;15.00;54.60;;;;;;5075594;28;20669;-61
2023/12/07 00:34:17;;;;;;;4.35;3.95;;;15.00;54.60;;;;;;5074071;28;20607;-61
2023/12/07 00:36:42;;;;;;;4.07;3.67;;;15.00;54.60;;;;;;5075230;28;20664;-61
2023/12/07 00:39:08;;;;;;;4.20;3.80;;;15.00;54.70;;;;;;5075344;28;20261;-61
2023/12/07 00:41:34;;;;;;;4.10;3.80;;;15.00;54.60;;;;;;5074269;28;20550;-60
2023/12/07 00:43:59;;;;;;;4.70;4.30;;;15.00;54.70;;;;;;5075336;28;20633;-61
2023/12/07 00:46:25;;;;;;;4.20;3.80;;;14.90;54.60;;;;;;5074861;28;20702;-61
2023/12/07 00:48:50;;;;;;;4.38;3.97;;;14.90;54.60;;;;;;5074484;28;20182;-61
2023/12/07 00:51:16;;;;;;;4.20;3.67;;;14.90;54.60;;;;;;5074799;28;20182;-61
2023/12/07 00:53:42;;;;;;;4.35;3.90;;;14.90;54.70;;;;;;5075010;28;20309;-61
2023/12/07 00:56:07;;;;;;;3.97;3.58;;;14.90;54.70;;;;;;5074520;28;20174;-61
2023/12/07 00:58:33;;;;;;;4.07;3.78;;;14.90;54.70;;;;;;5074865;28;20499;-60
2023/12/07 01:00:58;;;;;;;4.20;3.90;;;14.90;54.60;;;;;;5074767;28;20200;-60
2023/12/07 01:03:24;;;;;;;3.92;3.53;;;14.80;54.70;;;;;;5073958;28;20220;-60
2023/12/07 01:05:49;;;;;;;4.90;4.43;;;14.80;54.70;;;;;;5074656;28;20194;-60
2023/12/07 01:08:15;;;;;;;4.35;3.95;;;14.80;54.60;;;;;;5074964;28;20542;-61
2023/12/07 01:10:40;;;;;;;4.63;4.18;;;14.90;54.70;;;;;;5074295;28;20174;-61
2023/12/07 01:13:06;;;;;;;4.32;3.92;;;14.80;54.70;;;;;;5074916;28;20182;-60
2023/12/07 01:15:31;;;;;;;4.45;4.05;;;14.80;54.70;;;;;;5074497;28;20178;-60
2023/12/07 01:17:57;;;;;;;4.38;3.97;;;14.80;54.70;;;;;;5074500;28;20175;-60
2023/12/07 01:20:22;;;;;;;4.90;4.18;;;14.80;54.70;;;;;;5074240;28;20178;-60
2023/12/07 01:22:48;;;;;;;4.43;4.03;;;14.80;54.70;;;;;;5074590;28;20511;-60
2023/12/07 01:25:19;;;;;;;4.28;3.90;;;14.80;54.70;;;;;;5073679;28;20675;-60
2023/12/07 01:27:45;;;;;;;4.53;4.13;;;14.80;54.70;;;;;;5074595;28;20183;-60
2023/12/07 01:30:10;;;;;;;3.33;3.08;;;14.80;54.70;;;;;;5073702;28;20189;-60
2023/12/07 01:32:36;;;;;;;4.20;3.80;;;14.70;54.70;;;;;;5074167;28;20180;-60
2023/12/07 01:35:02;;;;;;;4.18;3.78;;;14.80;54.70;;;;;;5074400;28;20181;-60
2023/12/07 01:37:29;;;;;;;4.30;3.90;;;14.70;54.70;;;;;;5073108;28;20194;-61
2023/12/07 01:39:54;;;;;;;3.83;3.42;;;14.70;54.70;;;;;;5074310;28;20755;-61
2023/12/07 01:42:20;;;;;;;3.75;3.40;;;14.70;54.70;;;;;;5074046;28;20183;-60
2023/12/07 01:44:46;;;;;;;3.92;3.63;;;14.70;54.70;;;;;;5073486;28;20256;-61
2023/12/07 01:47:11;;;;;;;4.53;3.67;;;14.70;54.70;;;;;;5074099;28;20217;-61
2023/12/07 01:49:37;;;;;;;4.03;3.45;;;14.70;54.70;;;;;;5073697;28;20595;-61
2023/12/07 01:52:02;;;;;;;3.80;3.50;;;14.70;54.70;;;;;;5072168;28;20177;-61
2023/12/07 01:54:29;;;;;;;3.85;3.55;;;14.70;54.80;;;;;;5072518;28;20179;-61
2023/12/07 01:56:55;;;;;;;4.40;3.30;;;14.60;54.60;;;;;;5073864;28;20641;-60
2023/12/07 01:59:21;;;;;;;4.25;3.78;;;14.70;54.70;;;;;;5071726;28;20178;-60
2023/12/07 02:01:46;;;;;;;4.15;3.72;;;14.60;54.60;;;;;;5073891;28;20269;-60
2023/12/07 02:04:12;;;;;;;4.43;4.03;;;14.60;54.60;;;;;;5072513;28;20641;-60
2023/12/07 02:06:37;;;;;;;3.78;3.47;;;14.60;54.60;;;;;;5054798;28;20214;-61
2023/12/07 02:09:03;;;;;;;4.10;3.70;;;14.60;54.70;;;;;;5073571;28;20185;-60
2023/12/07 02:11:29;;;;;;;3.90;3.60;;;14.60;54.70;;;;;;5073564;28;20186;-61
2023/12/07 02:13:55;;;;;;;4.00;3.60;;;14.60;54.60;;;;;;5072778;28;20596;-60
2023/12/07 02:16:42;;;;;;;4.15;3.85;;;14.60;54.70;;;;;;5072148;28;20170;-60
2023/12/07 02:19:29;;;;;;;3.75;3.45;;;14.60;54.70;;;;;;5073477;28;20652;-61
2023/12/07 02:21:59;;;;;;;4.03;3.72;;;14.50;54.60;;;;;;5073389;28;20715;-61
2023/12/07 02:24:25;;;;;;;4.65;3.35;;;14.50;54.70;;;;;;5071839;28;20175;-61
2023/12/07 02:26:51;;;;;;;4.00;3.70;;;14.60;54.70;;;;;;5054744;28;20221;-60
2023/12/07 02:29:16;;;;;;;5.18;4.07;;;14.50;54.60;;;;;;5073073;28;20171;-61
2023/12/07 02:31:42;;;;;;;3.58;3.28;;;14.50;54.60;;;;;;5073428;28;20170;-60
2023/12/07 02:34:08;;;;;;;3.72;3.42;;;14.50;54.70;;;;;;5054711;28;20181;-61
2023/12/07 02:36:34;;;;;;;3.47;3.17;;;14.50;54.60;;;;;;5072868;28;20273;-60
2023/12/07 02:39:03;;;;;;;3.85;3.47;;;14.50;54.70;;;;;;5073257;28;20198;-61
2023/12/07 02:41:29;;;;;;;4.07;3.53;;;14.50;54.70;;;;;;5070809;28;20261;-60
2023/12/07 02:43:55;;;;;;;3.90;3.60;;;14.40;54.70;;;;;;5055307;28;20182;-60
2023/12/07 02:46:20;;;;;;;3.47;3.28;;;14.50;54.70;;;;;;5072809;28;20218;-61
2023/12/07 02:48:46;;;;;;;4.07;3.78;;;14.40;54.60;;;;;;5071563;28;20186;-61
2023/12/07 02:51:11;;;;;;;4.65;3.40;;;14.40;54.60;;;;;;5072868;28;20183;-61
2023/12/07 02:53:37;;;;;;;3.80;3.30;;;14.40;54.60;;;;;;5072419;28;20727;-61
2023/12/07 02:56:03;;;;;;;3.58;3.28;;;14.40;54.70;;;;;;5072007;28;20178;-60
2023/12/07 02:58:28;;;;;;;4.07;3.78;;;14.40;54.70;;;;;;5072446;28;20260;-61
2023/12/07 03:00:54;;;;;;;3.60;3.30;;;14.40;54.70;;;;;;5072931;28;20577;-61
2023/12/07 03:03:19;;;;;;;3.95;3.65;;;14.40;54.70;;;;;;5071805;28;20705;-60
2023/12/07 03:05:45;;;;;;;3.58;3.28;;;14.40;54.70;;;;;;5072716;28;20217;-60
2023/12/07 03:08:10;;;;;;;3.95;3.60;;;14.40;54.60;;;;;;5072668;28;20170;-60
2023/12/07 03:10:36;;;;;;;3.78;3.10;;;14.40;54.70;;;;;;5071542;28;20535;-60
2023/12/07 03:13:01;;;;;;;3.58;3.28;;;14.40;54.70;;;;;;5072736;28;20625;-60
2023/12/07 03:15:27;;;;;;;3.65;3.30;;;14.40;54.70;;;;;;5071460;28;20181;-60
2023/12/07 03:17:52;;;;;;;4.13;3.72;;;14.40;54.70;;;;;;5072594;28;20171;-61
2023/12/07 03:20:18;;;;;;;4.07;3.67;;;14.30;54.70;;;;;;5072183;28;20618;-60
2023/12/07 03:22:44;;;;;;;4.00;3.65;;;14.30;54.70;;;;;;5071726;28;20174;-61
2023/12/07 03:25:10;;;;;;;3.42;3.17;;;14.30;54.70;;;;;;5072416;28;20170;-61
2023/12/07 03:27:35;;;;;;;4.32;3.92;;;14.30;54.70;;;;;;5071961;28;20646;-61
2023/12/07 03:30:01;;;;;;;3.70;3.10;;;14.40;54.70;;;;;;5071836;28;20176;-60
2023/12/07 03:32:26;;;;;;;3.60;3.30;;;14.30;54.70;;;;;;5072162;28;20193;-60
2023/12/07 03:34:52;;;;;;;4.97;3.75;;;14.30;54.70;;;;;;5072218;28;20540;-61
2023/12/07 03:37:17;;;;;;;3.60;3.30;;;14.30;54.70;;;;;;5071255;28;20177;-61
2023/12/07 03:39:43;;;;;;;3.42;3.10;;;14.30;54.70;;;;;;5072265;28;20178;-60
2023/12/07 03:42:08;;;;;;;3.88;3.58;;;14.30;54.70;;;;;;5072005;28;20170;-61
2023/12/07 03:44:34;;;;;;;3.78;3.47;;;14.30;54.70;;;;;;5071249;28;20173;-61
2023/12/07 03:46:59;;;;;;;5.03;4.20;;;14.30;54.70;;;;;;5072180;28;20263;-61
2023/12/07 03:49:25;;;;;;;6.03;3.83;;;14.30;54.70;;;;;;5071885;28;20227;-61
2023/12/07 03:51:51;;;;;;;3.72;3.42;;;14.20;54.70;;;;;;5071304;28;20174;-61
2023/12/07 03:54:16;;;;;;;3.85;3.55;;;14.30;54.80;;;;;;5071726;28;20186;-60
2023/12/07 03:56:42;;;;;;;3.78;3.42;;;14.30;54.80;;;;;;5071978;28;20176;-60
2023/12/07 03:59:08;;;;;;;6.65;3.90;;;14.20;54.80;;;;;;5071237;28;20167;-60
2023/12/07 04:01:33;;;;;;;4.55;4.07;;;14.20;54.80;;;;;;5075126;28;20190;-60
2023/12/07 04:04:00;;;;;;;3.85;3.47;;;14.20;54.80;;;;;;5076260;28;20171;-60
2023/12/07 04:06:26;;;;;;;3.92;3.53;;;14.20;54.80;;;;;;5074951;28;20221;-60
2023/12/07 04:08:51;;;;;;;3.05;2.85;;;14.20;54.80;;;;;;5076043;28;20174;-61
2023/12/07 04:11:17;;;;;;;3.95;3.65;;;14.20;54.80;;;;;;5075685;28;20536;-60
2023/12/07 04:13:43;;;;;;;4.15;3.85;;;14.20;54.80;;;;;;5075389;28;20514;-60
2023/12/07 04:16:11;;;;;;;4.15;3.58;;;14.20;54.80;;;;;;5076050;28;20189;-60
2023/12/07 04:18:37;;;;;;;3.80;3.50;;;14.20;54.80;;;;;;5074267;28;20522;-60
2023/12/07 04:21:03;;;;;;;3.65;3.28;;;14.20;54.80;;;;;;5075148;28;20170;-61
2023/12/07 04:23:28;;;;;;;3.70;3.20;;;14.20;54.80;;;;;;5075554;28;20215;-60
2023/12/07 04:25:54;;;;;;;4.82;3.97;;;14.10;54.80;;;;;;5074855;28;20255;-60
2023/12/07 04:28:19;;;;;;;4.20;3.80;;;14.20;54.90;;;;;;5075566;28;20177;-61
2023/12/07 04:30:45;;;;;;;3.92;3.53;;;14.20;54.90;;;;;;5075681;28;20177;-60
2023/12/07 04:33:10;;;;;;;4.05;3.65;;;14.10;54.90;;;;;;5074804;28;20175;-60
2023/12/07 04:35:36;;;;;;;3.97;3.58;;;14.20;54.90;;;;;;5075371;28;20178;-61
2023/12/07 04:38:01;;;;;;;3.78;3.47;;;14.10;54.90;;;;;;5075488;28;20175;-61
2023/12/07 04:40:27;;;;;;;3.55;3.25;;;14.10;54.90;;;;;;5074308;28;20175;-61
2023/12/07 04:42:52;;;;;;;4.30;3.90;;;14.10;55.00;;;;;;5075335;28;20748;-61
2023/12/07 04:45:18;;;;;;;3.78;3.47;;;14.10;55.00;;;;;;5074915;28;20293;-61
2023/12/07 04:47:44;;;;;;;3.90;3.60;;;14.10;55.00;;;;;;5074677;28;20269;-61
2023/12/07 04:50:09;;;;;;;3.70;3.40;;;14.10;55.00;;;;;;5075327;28;20652;-61
2023/12/07 04:52:35;;;;;;;3.83;3.42;;;14.10;54.90;;;;;;5074695;28;20603;-61
2023/12/07 04:55:01;;;;;;;4.32;3.92;;;14.10;54.90;;;;;;5074433;28;20179;-61
2023/12/07 04:57:26;;;;;;;3.85;3.55;;;14.10;54.90;;;;;;5075012;28;20247;-60
2023/12/07 04:59:52;;;;;;;4.18;3.78;;;14.10;55.00;;;;;;5075224;28;20177;-61
2023/12/07 05:02:17;;;;;;;3.65;3.35;;;14.10;54.90;;;;;;5074143;28;20177;-60
2023/12/07 05:04:44;;;;;;;4.38;3.97;;;14.10;55.00;;;;;;5075009;28;20167;-61
2023/12/07 05:07:11;;;;;;;4.00;3.60;;;14.10;54.90;;;;;;5074642;28;20244;-60
2023/12/07 05:09:36;;;;;;;4.07;3.78;;;14.10;55.00;;;;;;5073774;28;20178;-60
2023/12/07 05:12:02;;;;;;;3.67;3.33;;;14.00;54.90;;;;;;5074018;28;20185;-61
2023/12/07 05:14:27;;;;;;;4.63;3.47;;;14.00;54.90;;;;;;5074531;28;20173;-60
2023/12/07 05:16:55;;;;;;;3.63;3.30;;;14.00;54.90;;;;;;5074135;28;20178;-60
2023/12/07 05:19:21;;;;;;;3.75;3.45;;;14.00;54.90;;;;;;5074454;28;20178;-61
2023/12/07 05:21:47;;;;;;;4.05;3.67;;;14.00;55.00;;;;;;5074580;28;20654;-60
2023/12/07 05:24:13;;;;;;;4.95;4.18;;;14.00;55.00;;;;;;5073805;28;20182;-61
2023/12/07 05:26:43;;;;;;;3.08;2.88;;;14.00;55.00;;;;;;5074742;28;20244;-60
2023/12/07 05:29:09;;;;;;;3.72;3.42;;;14.00;55.00;;;;;;5073994;28;20183;-61
2023/12/07 05:31:35;;;;;;;3.97;3.55;;;14.00;55.00;;;;;;5072978;28;20543;-61
2023/12/07 05:34:01;;;;;;;4.80;4.10;;;14.00;55.00;;;;;;5074344;28;20178;-61
2023/12/07 05:36:26;;;;;;;4.80;3.85;;;14.00;55.00;;;;;;5073477;28;20821;-60
2023/12/07 05:38:52;;;;;;;4.25;3.85;;;14.00;55.00;;;;;;5074235;28;20698;-61
2023/12/07 05:41:17;;;;;;;4.65;4.00;;;14.00;55.00;;;;;;5073930;28;20231;-61
2023/12/07 05:43:43;;;;;;;4.53;4.13;;;13.90;55.00;;;;;;5073605;28;20212;-61
2023/12/07 05:46:08;;;;;;;4.38;4.00;;;14.00;55.10;;;;;;5074139;28;20274;-61
2023/12/07 05:48:34;;;;;;;3.95;3.65;;;14.00;55.10;;;;;;5073447;28;20257;-61
2023/12/07 05:51:01;;;;;;;4.30;3.90;;;13.90;55.10;;;;;;5073233;28;20260;-60
2023/12/07 05:53:27;;;;;;;4.22;3.90;;;13.90;55.20;;;;;;5073583;28;20234;-61
2023/12/07 05:55:52;;;;;;;4.32;3.60;;;13.90;55.20;;;;;;5074122;28;20178;-61
2023/12/07 05:58:18;;;;;;;3.65;3.35;;;13.90;55.40;;;;;;5073186;28;20194;-61
2023/12/07 06:00:44;;;;;;;4.53;4.13;;;13.90;55.30;;;;;;5073999;28;20182;-60
2023/12/07 06:03:09;;;;;;;4.32;4.03;;;14.00;55.40;;;;;;5073923;28;20170;-60
2023/12/07 06:05:37;;;;;;;4.53;4.20;;;14.00;55.20;;;;;;5072746;28;20656;-61
2023/12/07 06:08:04;;;;;;;3.90;3.60;;;14.00;55.20;;;;;;5073575;28;20235;-60
2023/12/07 06:10:29;;;;;;;4.18;3.78;;;14.00;55.10;;;;;;5073509;28;20292;-61
2023/12/07 06:12:56;;;;;;;3.90;3.60;;;14.10;55.10;;;;;;5073030;28;20269;-61
2023/12/07 06:15:22;;;;;;;4.30;3.90;;;14.20;55.10;;;;;;5073429;28;20183;-60
2023/12/07 06:17:47;;;;;;;4.50;4.10;;;14.20;55.20;;;;;;5073692;28;20185;-61
2023/12/07 06:20:13;;;;;;;3.80;3.50;;;14.40;55.30;;;;;;5072826;28;20922;-61
2023/12/07 06:22:39;;;;;;;4.90;3.58;;;14.50;55.30;;;;;;5073500;28;20178;-60
2023/12/07 06:25:05;;;;;;;3.92;3.55;;;14.70;55.10;;;;;;5073572;28;20549;-60
2023/12/07 06:27:30;;;;;;;3.35;3.13;;;14.80;54.90;;;;;;5071229;28;20217;-61
2023/12/07 06:29:56;;;;;;;3.70;3.40;;;15.00;54.80;;;;;;5073449;28;20170;-60
2023/12/07 06:32:21;;;;;;;3.97;3.40;;;15.20;54.60;;;;;;5072455;28;20170;-60
2023/12/07 06:34:47;;;;;;;3.25;2.95;;;15.40;54.30;;;;;;5072896;28;20178;-61
2023/12/07 06:37:12;;;;;;;3.63;3.35;;;15.50;54.10;;;;;;5073110;28;20174;-60
2023/12/07 06:39:38;;;;;;;3.60;3.30;;;15.80;53.80;;;;;;5072160;28;20190;-61
2023/12/07 06:42:04;;;;;;;3.90;3.50;;;15.80;53.70;;;;;;5073012;28;20174;-60
2023/12/07 06:44:29;;;;;;;3.50;3.20;;;16.00;53.40;;;;;;5072851;28;20179;-60
2023/12/07 06:46:55;;;;;;;3.28;2.97;;;16.10;53.20;;;;;;5072216;28;20574;-61
2023/12/07 06:49:20;;;;;;;3.00;2.70;;;16.10;53.20;;;;;;5072578;28;20167;-61
2023/12/07 06:51:46;;;;;;;3.25;2.95;;;16.10;53.20;;;;;;5072804;28;20175;-60
2023/12/07 06:54:11;;;;;;;2.97;2.72;;;16.10;53.10;;;;;;5072032;28;20218;-61
2023/12/07 06:56:37;;;;;;;3.80;3.50;;;16.10;53.20;;;;;;5072670;28;20182;-60
2023/12/07 06:59:02;;;;;;;3.35;2.90;;;16.10;53.20;;;;;;5072842;28;20174;-60
2023/12/07 07:01:28;;;;;;;3.75;3.20;;;16.10;53.30;;;;;;5071889;28;20577;-60
2023/12/07 07:03:53;;;;;;;3.40;3.10;;;16.10;53.20;;;;;;5072712;28;20171;-60
2023/12/07 07:06:19;;;;;;;3.85;2.90;;;16.10;53.90;;;;;;5072190;28;20229;-61
2023/12/07 07:08:44;;;;;;;3.95;3.45;;;16.10;53.30;;;;;;5071922;28;20193;-61
2023/12/07 07:11:15;;;;;;;3.00;2.70;;;16.20;53.20;;;;;;5072609;28;20604;-60
2023/12/07 07:13:41;;;;;;;3.30;3.05;;;16.40;53.10;;;;;;5072743;28;20174;-61
2023/12/07 07:16:08;;;;;;;3.20;2.90;;;16.50;53.00;;;;;;5071774;28;20175;-61
2023/12/07 07:18:33;;;;;;;5.07;3.05;;;16.60;52.70;;;;;;5072176;28;20567;-61
2023/12/07 07:20:59;;;;;;;3.35;3.05;;;16.70;52.40;;;;;;5072188;28;20178;-61
2023/12/07 07:23:24;;;;;;;3.05;2.85;;;16.80;52.50;;;;;;5071341;28;20170;-60
2023/12/07 07:25:50;;;;;;;3.20;2.90;;;16.90;52.30;;;;;;5072163;28;20293;-61
2023/12/07 07:28:15;;;;;;;4.03;2.90;;;17.00;52.10;;;;;;5072034;28;20263;-60
2023/12/07 07:30:41;;;;;;;3.10;2.80;;;17.10;52.10;;;;;;5071468;28;20178;-61
2023/12/07 07:33:06;;;;;;;3.10;2.80;;;17.10;52.00;;;;;;5072298;28;20167;-61
2023/12/07 07:35:32;;;;;;;3.10;2.80;;;17.20;51.90;;;;;;5071392;28;20166;-60
2023/12/07 07:37:57;;;;;;;3.10;2.80;;;17.20;51.80;;;;;;5071342;28;20655;-60
2023/12/07 07:40:24;;;;;;;3.10;2.80;;;17.30;51.70;;;;;;5071701;28;20269;-61
2023/12/07 07:42:50;;;;;;;3.55;2.90;;;17.30;51.80;;;;;;5071434;28;20202;-61
2023/12/07 07:45:16;;;;;;;2.92;2.72;;;17.40;51.80;;;;;;5070938;28;20202;-61
2023/12/07 07:47:41;;;;;;;3.38;3.08;;;17.30;51.70;;;;;;5071413;28;20217;-61
2023/12/07 07:50:07;;;;;;;3.20;3.00;;;17.30;51.80;;;;;;5071328;28;20170;-61
2023/12/07 07:52:33;;;;;;;3.50;3.20;;;17.10;51.70;;;;;;5071626;28;20222;-61
2023/12/07 07:55:00;;;;;;;4.63;3.10;;;17.00;52.30;;;;;;5072055;28;20175;-61
2023/12/07 07:57:26;;;;;;;4.07;3.30;;;16.90;52.30;;;;;;5071046;28;20236;-61
2023/12/07 07:59:51;;;;;;;4.57;2.80;;;16.90;52.60;;;;;;5072025;28;20166;-61
2023/12/07 08:02:17;;;;;;;3.20;2.90;;;16.90;52.70;;;;;;5071573;28;20178;-61
2023/12/07 08:04:42;;;;;;;3.28;2.97;;;17.00;52.60;;;;;;5071151;28;20637;-61
2023/12/07 08:07:11;;;;;;;3.05;2.80;;;17.10;52.40;;;;;;5071538;28;20720;-61
2023/12/07 08:09:36;;;;;;;2.97;2.67;;;17.20;52.30;;;;;;5071298;28;20553;-61
2023/12/07 08:12:02;;;;;;;5.32;3.20;;;17.30;52.50;;;;;;5071133;28;20175;-61
2023/12/07 08:14:27;;;;;;;4.93;3.53;;;17.40;52.40;;;;;;5071565;28;20182;-61
2023/12/07 08:16:53;;;;;;;4.20;3.38;;;17.40;52.30;;;;;;5071704;28;20171;-61
2023/12/07 08:19:19;;;;;;;3.72;3.42;;;17.50;52.30;;;;;;5058404;28;20178;-61
2023/12/07 08:21:44;;;;;;;3.47;3.25;;;17.50;52.20;;;;;;5054017;28;20178;-61
2023/12/07 08:24:11;;;;;;;3.95;3.55;;;17.50;52.20;;;;;;5051130;28;20724;-61
2023/12/07 08:26:36;;;;;;;3.38;3.08;;;17.50;52.50;;;;;;5050257;28;20211;-61
2023/12/07 08:29:02;;;;;;;4.15;3.63;;;17.50;52.50;;;;;;5051331;28;20198;-60
2023/12/07 08:31:28;;;;;;;4.43;3.25;;;17.50;52.50;;;;;;5051306;28;20183;-61
2023/12/07 08:33:53;;;;;;;5.05;3.47;;;17.50;53.00;;;;;;5051075;28;20171;-63
2023/12/07 08:36:19;;;;;;;5.13;3.30;;;17.50;52.80;;;;;;5051480;28;20174;-63
2023/12/07 08:38:45;;;;;;;5.20;3.50;;;17.40;52.80;;;;;;5051721;28;20171;-65
2023/12/07 08:41:10;;;;;;;4.35;3.60;;;17.40;53.20;;;;;;5050786;28;20175;-66
2023/12/07 08:43:36;;;;;;;5.07;3.65;;;17.40;53.50;;;;;;5051246;28;20176;-67
2023/12/07 08:46:01;;;;;;;4.18;3.60;;;17.40;53.30;;;;;;5050625;28;20195;-64
2023/12/07 08:48:27;;;;;;;4.45;3.67;;;17.40;53.70;;;;;;5054069;28;20179;-66
2023/12/07 08:50:52;;;;;;;4.28;3.88;;;17.40;53.50;;;;;;5055275;28;20175;-66
2023/12/07 08:53:18;;;;;;;5.50;3.88;;;17.40;53.80;;;;;;5053654;28;20234;-65
2023/12/07 08:55:43;;;;;;;5.15;4.32;;;17.30;53.50;;;;;;5054955;28;20269;-66
2023/12/07 08:58:10;;;;;;;4.80;3.75;;;17.20;53.30;;;;;;5054929;28;20210;-65
2023/12/07 09:00:35;;;;;;;5.57;4.30;;;17.20;53.60;;;;;;5053741;28;20213;-65
2023/12/07 09:03:02;;;;;;;4.70;3.95;;;17.20;53.80;;;;;;5054720;28;20171;-64
2023/12/07 09:05:27;;;;;;;5.97;4.82;;;17.00;53.90;;;;;;5054676;28;20229;-65
2023/12/07 09:07:53;;;;;;;4.72;4.22;;;17.00;53.90;;;;;;5054257;28;20180;-65
2023/12/07 09:10:19;;;;;;;5.70;4.57;;;16.90;54.20;;;;;;5054625;28;20656;-65
2023/12/07 09:12:44;;;;;;;4.45;4.05;;;16.80;54.10;;;;;;5054593;28;20179;-65
2023/12/07 09:15:10;;;;;;;4.95;4.13;;;16.80;54.20;;;;;;5053960;28;20189;-65
2023/12/07 09:17:37;;;;;;;4.63;4.07;;;16.70;54.20;;;;;;5054232;28;20217;-65
2023/12/07 09:20:04;;;;;;;4.85;4.40;;;16.70;54.20;;;;;;5054740;28;20190;-65
2023/12/07 09:22:30;;;;;;;4.65;3.80;;;16.70;54.20;;;;;;5053622;28;20211;-64
2023/12/07 09:24:56;;;;;;;4.50;4.10;;;16.80;54.90;;;;;;5054545;28;20198;-65
2023/12/07 09:27:22;;;;;;;4.53;4.13;;;16.70;54.10;;;;;;5054135;28;20246;-65
2023/12/07 09:29:48;;;;;;;4.95;4.45;;;16.70;54.40;;;;;;5053670;28;20187;-65
2023/12/07 09:32:14;;;;;;;4.50;4.10;;;16.70;54.30;;;;;;5053854;28;20197;-65
2023/12/07 09:34:39;;;;;;;4.32;3.97;;;16.70;54.20;;;;;;5054428;28;20195;-65
2023/12/07 09:37:09;;;;;;;4.80;4.13;;;16.70;54.20;;;;;;5053655;28;20179;-65
2023/12/07 09:39:35;;;;;;;4.88;4.40;;;16.70;54.30;;;;;;5053790;28;20590;-65
2023/12/07 09:42:00;;;;;;;5.00;4.50;;;16.70;54.10;;;;;;5054266;28;20175;-65
2023/12/07 09:44:26;;;;;;;4.28;3.88;;;16.70;54.20;;;;;;5051865;28;20182;-66
2023/12/07 09:46:52;;;;;;;4.78;4.32;;;16.70;54.20;;;;;;5052780;28;20206;-65
2023/12/07 09:49:17;;;;;;;3.92;3.63;;;16.80;54.10;;;;;;5053586;28;20175;-66
2023/12/07 09:51:43;;;;;;;4.20;3.80;;;16.70;54.20;;;;;;5053666;28;20630;-66
2023/12/07 09:54:09;;;;;;;4.70;4.30;;;16.70;54.20;;;;;;5052578;28;20227;-65
2023/12/07 09:56:35;;;;;;;4.65;4.25;;;16.70;54.10;;;;;;5052956;28;20193;-65
2023/12/07 09:59:00;;;;;;;4.35;3.95;;;16.80;54.20;;;;;;5053338;28;20175;-64
2023/12/07 10:01:34;;;;;;;4.50;4.13;;;16.80;54.10;;;;;;5053302;28;20171;-64
2023/12/07 10:04:20;;;;;;;4.60;3.88;;;16.80;54.20;;;;;;5053213;28;20253;-64
2023/12/07 10:06:45;;;;;;;4.03;3.72;;;16.80;54.20;;;;;;5053599;28;20210;-65
2023/12/07 10:09:11;;;;;;;3.75;3.40;;;16.80;54.20;;;;;;5053637;28;20206;-65
2023/12/07 10:11:37;;;;;;;4.00;3.60;;;16.70;54.10;;;;;;5052641;28;20179;-65
2023/12/07 10:14:04;;;;;;;3.78;3.47;;;16.80;54.70;;;;;;5052178;28;20553;-64
2023/12/07 10:16:34;;;;;;;3.85;3.47;;;16.80;54.10;;;;;;5053130;28;20179;-64
2023/12/07 10:19:21;;;;;;;3.83;3.50;;;16.80;54.20;;;;;;5052965;28;20179;-64
2023/12/07 10:21:47;;;;;;;4.28;3.88;;;16.80;54.10;;;;;;5052337;28;20185;-64
2023/12/07 10:24:12;;;;;;;4.00;3.70;;;16.80;54.10;;;;;;5053303;28;20179;-64
2023/12/07 10:26:39;;;;;;;3.85;3.33;;;16.80;54.20;;;;;;5052432;28;20357;-64
2023/12/07 10:29:05;;;;;;;3.75;3.45;;;16.80;54.10;;;;;;5051990;28;20544;-64
2023/12/07 10:31:31;;;;;;;3.78;3.30;;;16.80;54.10;;;;;;5052454;28;20207;-65
2023/12/07 10:33:56;;;;;;;3.88;3.22;;;16.80;54.10;;;;;;5053186;28;20707;-65
2023/12/07 10:36:22;;;;;;;3.42;3.03;;;16.80;54.10;;;;;;5052848;28;20572;-65
2023/12/07 10:38:50;;;;;;;4.10;3.67;;;16.80;54.10;;;;;;5052210;28;20547;-65
2023/12/07 10:41:16;;;;;;;4.38;3.38;;;16.80;54.00;;;;;;5052884;28;20262;-65
2023/12/07 10:43:45;;;;;;;3.83;3.30;;;16.80;54.10;;;;;;5035218;28;20228;-66
2023/12/07 10:46:11;;;;;;;3.95;3.33;;;16.80;54.10;;;;;;5034378;28;20210;-66
2023/12/07 10:48:37;;;;;;;3.63;3.25;;;16.80;54.10;;;;;;5051360;28;20258;-66
2023/12/07 10:51:05;;;;;;;3.78;3.33;;;16.80;54.10;;;;;;5034950;28;20186;-65
2023/12/07 10:53:40;;;;;;;3.63;3.33;;;16.80;54.10;;;;;;5034058;28;20350;-65
2023/12/07 10:56:07;;;;;;;3.58;3.28;;;16.70;54.20;;;;;;5052720;28;20228;-65
2023/12/07 10:58:34;;;;;;;3.85;3.28;;;16.60;54.20;;;;;;5034940;28;20182;-64
2023/12/07 11:01:00;;;;;;;4.07;3.67;;;16.60;54.30;;;;;;5034406;28;20179;-64
2023/12/07 11:03:26;;;;;;;3.65;3.35;;;16.50;54.50;;;;;;5051237;28;20261;-65
2023/12/07 11:05:51;;;;;;;3.65;3.35;;;16.40;54.60;;;;;;5051355;28;20353;-64
2023/12/07 11:08:37;;;;;;;3.58;3.30;;;16.50;54.70;;;;;;5051790;28;20592;-65
2023/12/07 11:11:15;;;;;;;3.90;3.53;;;16.40;54.70;;;;;;5052005;28;20175;-65
2023/12/07 11:13:40;;;;;;;3.70;3.40;;;16.50;54.70;;;;;;5051326;28;20178;-64
2023/12/07 11:16:06;;;;;;;3.33;3.13;;;16.50;54.80;;;;;;5050806;28;20251;-65
2023/12/07 11:18:32;;;;;;;3.50;3.20;;;16.50;54.60;;;;;;5052130;28;20254;-64
2023/12/07 11:20:58;;;;;;;4.50;3.70;;;16.40;54.70;;;;;;5050726;28;20175;-65
2023/12/07 11:23:23;;;;;;;3.55;3.25;;;16.50;54.70;;;;;;5052272;28;20171;-65
2023/12/07 11:25:50;;;;;;;3.72;3.42;;;16.50;54.60;;;;;;5052452;28;20171;-65
2023/12/07 11:28:16;;;;;;;3.65;3.35;;;16.50;54.70;;;;;;5051371;28;20223;-65
2023/12/07 11:30:43;;;;;;;3.70;3.40;;;16.40;54.70;;;;;;5052172;28;20595;-65
2023/12/07 11:33:09;;;;;;;3.72;3.42;;;16.40;54.80;;;;;;5052410;28;20179;-63
2023/12/07 11:36:02;;;;;;;4.63;3.50;;;16.30;54.90;;;;;;5051172;28;20179;-64
2023/12/07 11:38:27;;;;;;;4.03;3.63;;;16.30;55.00;;;;;;5050778;28;20182;-67
2023/12/07 11:40:54;;;;;;;4.68;3.85;;;16.20;54.90;;;;;;5051448;28;20175;-68
2023/12/07 11:43:41;;;;;;;4.22;3.83;;;16.20;54.90;;;;;;5049360;28;20220;-68
2023/12/07 11:46:07;;;;;;;4.75;3.92;;;16.20;55.00;;;;;;5051650;28;20216;-66
2023/12/07 11:48:32;;;;;;;3.70;3.40;;;16.30;54.90;;;;;;5051143;28;20250;-67
2023/12/07 11:51:00;;;;;;;6.30;4.47;;;16.30;54.90;;;;;;5051224;28;20650;-63
2023/12/07 11:53:26;;;;;;;6.65;4.18;;;16.30;54.80;;;;;;5051278;28;20593;-63
2023/12/07 11:55:52;;;;;;;4.20;3.80;;;16.30;54.90;;;;;;5051736;28;20175;-64
2023/12/07 11:58:18;;;;;;;6.07;3.72;;;16.20;55.00;;;;;;5051191;28;20179;-63
2023/12/07 12:00:45;;;;;;;5.63;4.03;;;16.20;55.00;;;;;;5052105;28;20171;-63
2023/12/07 12:03:12;;;;;;;5.53;3.97;;;16.10;55.10;;;;;;5051286;28;20179;-63
2023/12/07 12:05:40;;;;;;;4.10;3.70;;;16.10;55.20;;;;;;5051552;28;20179;-64
2023/12/07 12:08:06;;;;;;;7.00;3.97;;;16.10;55.20;;;;;;5051963;28;20403;-63
2023/12/07 12:10:31;;;;;;;5.18;4.13;;;16.10;55.20;;;;;;5050780;28;20186;-63
2023/12/07 12:12:57;;;;;;;5.55;3.97;;;16.20;55.20;;;;;;5051719;28;20179;-63
2023/12/07 12:15:22;;;;;;;5.22;3.75;;;16.20;55.20;;;;;;5051704;28;20532;-62
2023/12/07 12:17:48;;;;;;;4.28;3.60;;;16.20;55.20;;;;;;5051197;28;20634;-62
2023/12/07 12:20:17;;;;;;;5.95;3.85;;;16.20;55.20;;;;;;5034059;28;20711;-63
2023/12/07 12:22:43;;;;;;;4.25;3.85;;;16.20;55.20;;;;;;5055372;28;20179;-65
2023/12/07 12:25:08;;;;;;;7.03;4.50;;;16.20;55.30;;;;;;5054985;28;20190;-65
2023/12/07 12:27:34;;;;;;;6.28;3.95;;;16.10;55.60;;;;;;5055232;28;20685;-65
2023/12/07 12:29:59;;;;;;;5.22;4.40;;;16.10;55.50;;;;;;5055590;28;20300;-65
2023/12/07 12:32:25;;;;;;;6.63;4.45;;;16.10;55.60;;;;;;5037103;28;20225;-65
2023/12/07 12:34:51;;;;;;;5.35;4.20;;;16.10;55.70;;;;;;5055673;28;20182;-65
2023/12/07 12:37:17;;;;;;;4.45;4.05;;;16.10;55.50;;;;;;5055209;28;20528;-65
2023/12/07 12:39:42;;;;;;;10.80;4.85;;;16.10;55.60;;;;;;5054801;28;20182;-66
2023/12/07 12:42:11;;;;;;;4.90;4.20;;;16.10;55.60;;;;;;5055661;28;20190;-66